Time;durP1;ratioP1;P1;durP2;ratioP2;P2;SDS_P1;SDS_P2;PMS_P1;PMS_P2;Temp;Humidity;BMP_temperature;BMP_pressure;BME280_temperature;BME280_humidity;BME280_pressure;Samples;Min_cycle;Max_cycle;Signal;HPM_P1;HPM_P2
2024/01/15 00:00:51;;;;;;;22.13;12.00;;;;;;;-2.85;76.42;97005.66;4990028;28;20214;-73
2024/01/15 00:03:17;;;;;;;22.50;12.95;;;;;;;-2.84;76.77;97002.03;4989888;28;20574;-74
2024/01/15 00:05:44;;;;;;;24.90;12.77;;;;;;;-2.97;77.49;97001.53;4997506;28;20215;-73
2024/01/15 00:08:12;;;;;;;25.80;13.45;;;;;;;-2.79;77.06;96991.00;4988922;28;20199;-74
2024/01/15 00:10:40;;;;;;;21.90;12.45;;;;;;;-2.83;77.06;96994.91;4991657;28;20221;-74
2024/01/15 00:13:06;;;;;;;22.90;13.02;;;;;;;-3.05;77.70;96985.53;4989961;28;20290;-74
2024/01/15 00:15:33;;;;;;;25.60;12.20;;;;;;;-3.01;77.82;96983.44;4988260;28;20999;-74
2024/01/15 00:18:00;;;;;;;23.83;13.20;;;;;;;-3.21;78.56;96990.56;4989296;28;20214;-74
2024/01/15 00:20:26;;;;;;;22.70;12.65;;;;;;;-3.15;78.69;96982.06;4987213;28;20209;-74
2024/01/15 00:22:53;;;;;;;25.23;13.90;;;;;;;-3.25;79.00;96981.28;4987713;28;20223;-73
2024/01/15 00:25:21;;;;;;;23.98;12.00;;;;;;;-3.14;78.84;96973.16;4989206;28;20210;-74
2024/01/15 00:27:47;;;;;;;22.08;12.65;;;;;;;-3.28;79.16;96965.69;4983376;28;20217;-74
2024/01/15 00:30:14;;;;;;;24.05;13.27;;;;;;;-3.43;79.85;96967.94;4989144;28;20251;-74
2024/01/15 00:32:41;;;;;;;24.00;12.90;;;;;;;-3.25;79.59;96962.75;4989752;28;20192;-73
2024/01/15 00:35:08;;;;;;;23.75;13.07;;;;;;;-3.16;79.16;96969.81;4987605;28;20645;-74
2024/01/15 00:37:34;;;;;;;22.55;11.13;;;;;;;-3.09;79.07;96973.56;5004369;28;20211;-74
2024/01/15 00:40:01;;;;;;;20.30;11.77;;;;;;;-3.16;79.28;96972.47;4989352;28;20203;-74
2024/01/15 00:42:29;;;;;;;21.17;11.32;;;;;;;-3.20;79.15;96968.44;4990196;28;20786;-74
2024/01/15 00:44:56;;;;;;;23.02;11.48;;;;;;;-3.09;79.11;96968.25;4989408;28;20684;-74
2024/01/15 00:47:23;;;;;;;18.67;10.98;;;;;;;-3.10;79.14;96969.25;5004639;28;20658;-74
2024/01/15 00:49:49;;;;;;;20.05;10.50;;;;;;;-3.10;79.66;96959.50;4989379;28;20211;-74
2024/01/15 00:52:16;;;;;;;19.73;10.95;;;;;;;-2.98;78.98;96962.81;4990506;28;20217;-74
2024/01/15 00:54:42;;;;;;;22.05;10.30;;;;;;;-2.92;79.01;96956.09;4986480;28;20329;-74
2024/01/15 00:57:09;;;;;;;17.52;9.93;;;;;;;-3.05;79.67;96967.00;4990054;28;20302;-74
2024/01/15 00:59:37;;;;;;;22.63;11.52;;;;;;;-2.98;79.64;96962.81;4990041;28;20213;-74
2024/01/15 01:02:04;;;;;;;20.77;9.80;;;;;;;-2.92;80.11;96966.69;4986500;28;20207;-74
2024/01/15 01:04:30;;;;;;;17.95;9.40;;;;;;;-2.75;79.88;96958.81;4986755;28;20223;-74
2024/01/15 01:06:57;;;;;;;18.42;11.23;;;;;;;-2.73;79.96;96959.50;4988774;28;20672;-74
2024/01/15 01:09:24;;;;;;;17.83;10.75;;;;;;;-2.62;80.16;96960.28;4988181;28;20203;-74
2024/01/15 01:11:51;;;;;;;17.88;10.07;;;;;;;-2.47;79.83;96964.09;4990350;28;20250;-74
2024/01/15 01:14:17;;;;;;;21.10;10.20;;;;;;;-2.29;79.16;96964.97;4971535;28;20203;-74
2024/01/15 01:16:45;;;;;;;21.58;11.38;;;;;;;-2.35;79.13;96954.97;4988289;28;20291;-74
2024/01/15 01:19:12;;;;;;;17.02;10.88;;;;;;;-2.20;78.80;96957.94;4989535;28;20195;-74
2024/01/15 01:21:38;;;;;;;17.73;9.68;;;;;;;-2.21;79.07;96951.78;4987342;28;20210;-74
2024/01/15 01:24:05;;;;;;;23.23;10.32;;;;;;;-2.40;79.80;96952.75;4986429;28;20307;-74
2024/01/15 01:26:32;;;;;;;17.50;9.60;;;;;;;-2.27;79.89;96946.28;5020943;28;20216;-74
2024/01/15 01:28:58;;;;;;;21.13;11.02;;;;;;;-2.25;79.98;96939.00;4988537;28;20201;-74
2024/01/15 01:31:25;;;;;;;19.92;9.45;;;;;;;-2.03;79.63;96938.56;4987202;28;20195;-74
2024/01/15 01:33:53;;;;;;;16.10;10.32;;;;;;;-1.91;78.86;96936.50;4987414;28;20203;-74
2024/01/15 01:36:20;;;;;;;16.80;9.60;;;;;;;-1.98;78.60;96941.59;4989584;28;20341;-73
2024/01/15 01:38:46;;;;;;;16.42;9.55;;;;;;;-1.74;78.36;96943.63;4988142;28;20213;-74
2024/01/15 01:41:13;;;;;;;15.73;8.43;;;;;;;-1.76;78.08;96940.31;4987879;28;20242;-74
2024/01/15 01:43:40;;;;;;;16.85;9.40;;;;;;;-1.76;78.01;96941.13;5020352;28;20724;-74
2024/01/15 01:46:07;;;;;;;20.17;10.27;;;;;;;-1.65;77.73;96942.72;4990211;28;20203;-74
2024/01/15 01:48:33;;;;;;;17.75;10.18;;;;;;;-1.75;77.61;96942.81;4993445;28;20546;-74
2024/01/15 01:51:04;;;;;;;16.92;9.27;;;;;;;-1.63;77.71;96939.91;5008456;28;20290;-74
2024/01/15 01:53:30;;;;;;;17.40;9.65;;;;;;;-1.66;77.96;96935.75;4992853;28;20230;-74
2024/01/15 01:55:58;;;;;;;17.38;10.25;;;;;;;-1.71;77.99;96938.03;4989985;28;20278;-74
2024/01/15 01:58:25;;;;;;;16.55;9.23;;;;;;;-1.83;78.24;96939.22;5008209;28;20207;-74
2024/01/15 02:00:52;;;;;;;18.95;9.40;;;;;;;-1.88;78.64;96938.84;4988942;28;20288;-74
2024/01/15 02:03:18;;;;;;;16.75;9.60;;;;;;;-1.77;78.31;96938.63;4991313;28;20234;-74
2024/01/15 02:05:45;;;;;;;16.27;10.20;;;;;;;-1.77;78.37;96943.94;4990478;28;20207;-74
2024/01/15 02:08:13;;;;;;;16.70;9.40;;;;;;;-1.70;78.58;96942.34;5024232;28;20214;-73
2024/01/15 02:10:42;;;;;;;17.63;10.85;;;;;;;-1.76;78.63;96929.69;4983363;28;20290;-74
2024/01/15 02:13:09;;;;;;;15.45;9.38;;;;;;;-1.76;78.59;96929.69;4991432;28;20665;-73
2024/01/15 02:15:36;;;;;;;17.48;10.48;;;;;;;-1.86;78.57;96932.41;4991429;28;20286;-74
2024/01/15 02:18:04;;;;;;;12.88;7.63;;;;;;;-1.81;78.84;96931.97;4986947;28;20556;-73
2024/01/15 02:20:30;;;;;;;14.35;9.00;;;;;;;-1.71;78.47;96938.84;4990846;28;20299;-74
2024/01/15 02:23:07;;;;;;;14.85;9.27;;;;;;;-1.68;78.36;96937.72;4990672;28;20210;-73
2024/01/15 02:25:34;;;;;;;14.82;9.10;;;;;;;-1.54;77.59;96934.50;4991294;28;20213;-73
2024/01/15 02:28:01;;;;;;;15.07;9.40;;;;;;;-1.59;77.71;96933.28;4992769;28;20210;-74
2024/01/15 02:30:28;;;;;;;15.77;9.10;;;;;;;-1.64;77.55;96936.44;4991006;28;20207;-74
2024/01/15 02:32:55;;;;;;;16.70;9.50;;;;;;;-1.58;77.28;96927.84;4975315;28;20242;-74
2024/01/15 02:35:23;;;;;;;13.93;8.40;;;;;;;-1.66;77.44;96935.75;4984806;28;20211;-73
2024/01/15 02:37:49;;;;;;;11.43;8.00;;;;;;;-1.61;77.78;96928.13;5000549;28;20302;-74
2024/01/15 02:40:17;;;;;;;15.10;8.70;;;;;;;-1.62;77.30;96934.44;4972717;28;20791;-74
2024/01/15 02:42:44;;;;;;;14.55;8.50;;;;;;;-1.57;77.36;96921.53;4990680;28;20203;-74
2024/01/15 02:45:10;;;;;;;13.95;9.10;;;;;;;-1.57;77.24;96926.84;4991001;28;20227;-73
2024/01/15 02:47:37;;;;;;;13.50;7.95;;;;;;;-1.65;77.44;96932.13;4974150;28;20297;-74
2024/01/15 02:50:04;;;;;;;12.98;7.45;;;;;;;-1.71;78.08;96933.56;4990425;28;20211;-74
2024/01/15 02:52:31;;;;;;;13.30;8.48;;;;;;;-1.66;77.62;96930.44;4992828;28;20215;-74
2024/01/15 02:54:57;;;;;;;13.65;8.25;;;;;;;-1.57;76.93;96921.53;4968725;28;20282;-74
2024/01/15 02:57:25;;;;;;;14.57;8.20;;;;;;;-1.49;76.68;96932.22;4987825;28;20330;-73
2024/01/15 02:59:52;;;;;;;11.75;7.25;;;;;;;-1.51;76.52;96934.19;4989584;28;20215;-74
2024/01/15 03:02:19;;;;;;;14.02;8.10;;;;;;;-1.53;76.52;96930.88;4990014;28;20204;-74
2024/01/15 03:04:46;;;;;;;13.65;7.85;;;;;;;-1.46;76.48;96923.13;4998327;28;20233;-74
2024/01/15 03:07:12;;;;;;;13.63;8.88;;;;;;;-1.71;76.65;96906.19;4990064;28;20207;-73
2024/01/15 03:09:39;;;;;;;14.60;7.93;;;;;;;-1.57;77.05;96923.38;4990620;28;20565;-73
2024/01/15 03:12:06;;;;;;;12.82;8.10;;;;;;;-1.44;76.74;96924.63;4991232;28;20215;-73
2024/01/15 03:14:34;;;;;;;14.60;9.70;;;;;;;-1.60;76.89;96919.19;4984532;28;20641;-73
2024/01/15 03:17:01;;;;;;;13.98;7.90;;;;;;;-1.51;77.07;96917.44;4992005;28;20203;-73
2024/01/15 03:19:28;;;;;;;17.05;9.05;;;;;;;-1.48;76.84;96917.97;4990865;28;20230;-74
2024/01/15 03:21:54;;;;;;;16.08;8.93;;;;;;;-1.43;76.56;96915.69;4989565;28;20207;-73
2024/01/15 03:24:21;;;;;;;15.93;9.50;;;;;;;-1.40;76.49;96917.19;4989282;28;20792;-73
2024/01/15 03:26:47;;;;;;;16.08;10.00;;;;;;;-1.47;76.64;96914.34;4990364;28;20203;-73
2024/01/15 03:29:14;;;;;;;15.77;8.30;;;;;;;-1.51;76.83;96914.78;4990283;28;20286;-73
2024/01/15 03:31:42;;;;;;;15.35;8.95;;;;;;;-1.53;76.78;96908.81;4991220;28;20235;-73
2024/01/15 03:34:08;;;;;;;12.75;8.45;;;;;;;-1.49;77.10;96910.16;4991474;28;20203;-73
2024/01/15 03:36:35;;;;;;;14.68;8.15;;;;;;;-1.52;77.43;96906.00;4992627;28;20226;-73
2024/01/15 03:39:01;;;;;;;16.23;8.43;;;;;;;-1.59;77.45;96899.66;5005639;28;20614;-73
2024/01/15 03:41:28;;;;;;;13.60;7.85;;;;;;;-1.49;77.16;96907.50;4988802;28;20293;-73
2024/01/15 03:43:54;;;;;;;13.73;8.55;;;;;;;-1.34;76.73;96916.59;4984989;28;20230;-73
2024/01/15 03:46:21;;;;;;;13.02;8.40;;;;;;;-1.22;76.21;96906.53;4973127;28;20661;-73
2024/01/15 03:48:49;;;;;;;12.27;7.80;;;;;;;-1.19;75.99;96903.56;4991575;28;20211;-74
2024/01/15 03:51:17;;;;;;;14.65;8.77;;;;;;;-1.12;75.47;96893.97;4991408;28;20207;-73
2024/01/15 03:53:44;;;;;;;12.63;8.15;;;;;;;-0.99;74.76;96897.03;4987748;28;20295;-73
2024/01/15 03:56:11;;;;;;;13.38;8.27;;;;;;;-0.98;74.66;96892.56;4989740;28;20245;-73
2024/01/15 03:58:37;;;;;;;13.02;8.48;;;;;;;-1.00;74.45;96895.38;4989842;28;20211;-74
2024/01/15 04:01:04;;;;;;;11.85;7.68;;;;;;;-1.01;74.74;96888.41;4991057;28;20286;-73
2024/01/15 04:03:30;;;;;;;14.98;8.98;;;;;;;-1.00;74.77;96890.06;5021975;28;20233;-73
2024/01/15 04:05:58;;;;;;;12.48;7.75;;;;;;;-0.94;75.02;96891.22;4990544;28;20245;-73
2024/01/15 04:08:25;;;;;;;12.65;7.63;;;;;;;-0.84;74.59;96883.97;5005748;28;20316;-73
2024/01/15 04:10:51;;;;;;;11.05;8.05;;;;;;;-0.72;73.66;96878.25;4989769;28;20285;-73
2024/01/15 04:13:18;;;;;;;12.90;8.48;;;;;;;-0.79;73.47;96876.38;5005027;28;20207;-74
2024/01/15 04:15:44;;;;;;;12.90;8.45;;;;;;;-0.77;73.55;96877.06;4989536;28;20219;-73
2024/01/15 04:18:11;;;;;;;10.65;6.85;;;;;;;-0.80;73.87;96877.38;4989342;28;20213;-73
2024/01/15 04:20:38;;;;;;;11.07;7.50;;;;;;;-0.84;74.39;96868.88;4987650;28;20276;-74
2024/01/15 04:23:06;;;;;;;11.05;7.28;;;;;;;-0.88;74.00;96869.38;4988803;28;22172;-73
2024/01/15 04:25:32;;;;;;;10.10;7.20;;;;;;;-0.80;74.14;96867.56;5021312;28;20327;-74
2024/01/15 04:27:59;;;;;;;11.30;5.82;;;;;;;-0.73;74.04;96871.25;4989232;28;20231;-73
2024/01/15 04:30:25;;;;;;;12.02;8.10;;;;;;;-0.62;73.85;96869.28;4988756;28;20198;-73
2024/01/15 04:32:52;;;;;;;12.55;7.80;;;;;;;-0.66;73.63;96870.63;4988756;28;20305;-73
2024/01/15 04:35:19;;;;;;;8.98;6.55;;;;;;;-0.75;74.04;96854.66;4988497;28;20199;-74
2024/01/15 04:37:45;;;;;;;12.00;8.02;;;;;;;-0.69;73.71;96851.34;4987781;28;20266;-73
2024/01/15 04:40:14;;;;;;;8.63;6.82;;;;;;;-0.74;73.82;96858.13;5006344;28;20668;-73
2024/01/15 04:42:41;;;;;;;11.02;6.05;;;;;;;-0.70;74.07;96847.03;4990499;28;20864;-73
2024/01/15 04:45:08;;;;;;;9.98;6.40;;;;;;;-0.68;73.29;96853.03;4989983;28;20229;-73
2024/01/15 04:47:36;;;;;;;8.93;7.13;;;;;;;-0.61;73.50;96865.63;5004964;28;20231;-74
2024/01/15 04:50:03;;;;;;;10.98;7.28;;;;;;;-0.60;73.61;96872.59;4990155;28;20210;-73
2024/01/15 04:52:30;;;;;;;8.68;6.25;;;;;;;-0.59;73.57;96876.94;4997819;28;20217;-73
2024/01/15 04:54:56;;;;;;;10.38;6.95;;;;;;;-0.55;73.27;96865.00;4987986;28;20598;-73
2024/01/15 04:57:24;;;;;;;9.18;6.30;;;;;;;-0.44;72.87;96862.03;4984258;28;20207;-74
2024/01/15 04:59:52;;;;;;;9.68;6.80;;;;;;;-0.48;72.93;96860.69;4988898;28;20751;-73
2024/01/15 05:02:18;;;;;;;8.68;6.57;;;;;;;-0.46;72.98;96866.69;4988559;28;20293;-74
2024/01/15 05:04:45;;;;;;;8.43;5.60;;;;;;;-0.56;72.98;96871.28;4988808;28;20218;-73
2024/01/15 05:07:11;;;;;;;9.68;6.50;;;;;;;-0.64;73.46;96863.28;4989330;28;20542;-73
2024/01/15 05:09:38;;;;;;;8.48;6.53;;;;;;;-0.60;73.43;96869.94;4990891;28;20286;-73
2024/01/15 05:12:05;;;;;;;9.90;6.80;;;;;;;-0.62;73.98;96871.94;5005731;28;20203;-73
2024/01/15 05:14:33;;;;;;;8.75;5.68;;;;;;;-0.73;73.97;96857.97;4988517;28;20203;-74
2024/01/15 05:17:00;;;;;;;8.70;6.00;;;;;;;-0.54;73.33;96848.06;4989581;28;20281;-74
2024/01/15 05:19:26;;;;;;;9.27;6.68;;;;;;;-0.62;73.59;96851.50;4988858;28;20721;-73
2024/01/15 05:21:53;;;;;;;9.40;6.38;;;;;;;-0.41;72.65;96851.09;4993455;28;20203;-73
2024/01/15 05:24:20;;;;;;;9.65;6.28;;;;;;;-0.37;72.09;96849.78;4993313;28;20230;-73
2024/01/15 05:26:46;;;;;;;9.98;7.00;;;;;;;-0.42;72.26;96849.41;4994252;28;20199;-73
2024/01/15 05:29:13;;;;;;;12.00;7.15;;;;;;;-0.39;72.08;96841.97;4970895;28;20210;-73
2024/01/15 05:31:41;;;;;;;12.05;7.00;;;;;;;-0.40;72.13;96842.13;4991364;28;20290;-73
2024/01/15 05:34:07;;;;;;;10.25;6.93;;;;;;;-0.35;72.21;96842.47;4990810;28;20714;-73
2024/01/15 05:36:34;;;;;;;10.98;7.20;;;;;;;-0.39;72.01;96846.44;4993143;28;20297;-73
2024/01/15 05:39:02;;;;;;;9.75;6.75;;;;;;;-0.31;71.78;96849.09;4994693;28;20290;-73
2024/01/15 05:41:29;;;;;;;10.52;7.05;;;;;;;-0.18;71.83;96859.25;5024470;28;20689;-74
2024/01/15 05:43:56;;;;;;;10.55;7.18;;;;;;;-0.31;72.02;96859.72;4990964;28;20813;-73
2024/01/15 05:46:22;;;;;;;11.18;7.10;;;;;;;-0.44;72.96;96854.91;4973824;28;20208;-74
2024/01/15 05:48:50;;;;;;;11.10;7.25;;;;;;;-0.50;73.12;96844.09;4990979;28;20196;-71
2024/01/15 05:51:16;;;;;;;10.30;7.10;;;;;;;-0.53;73.41;96841.75;4993349;28;21019;-71
2024/01/15 05:53:44;;;;;;;10.45;6.75;;;;;;;-0.56;73.78;96828.78;4991200;28;20218;-70
2024/01/15 05:56:11;;;;;;;10.88;7.05;;;;;;;-0.57;73.89;96845.72;4990471;28;20207;-71
2024/01/15 05:58:38;;;;;;;10.55;7.35;;;;;;;-0.54;73.62;96829.47;4993125;28;20203;-71
2024/01/15 06:01:05;;;;;;;10.48;7.05;;;;;;;-0.60;73.83;96830.09;4991606;28;20209;-70
2024/01/15 06:03:31;;;;;;;11.18;7.85;;;;;;;-0.58;73.90;96833.44;4991803;28;20219;-70
2024/01/15 06:05:59;;;;;;;10.10;6.95;;;;;;;-0.46;73.73;96829.47;4991924;28;20242;-70
2024/01/15 06:08:27;;;;;;;13.75;8.02;;;;;;;-0.47;73.70;96825.16;4992561;28;20724;-70
2024/01/15 06:10:54;;;;;;;13.52;8.55;;;;;;;-0.41;73.21;96827.16;4990696;28;20214;-70
2024/01/15 06:13:20;;;;;;;10.00;7.70;;;;;;;-0.46;73.10;96824.16;4991508;28;20370;-70
2024/01/15 06:15:47;;;;;;;10.38;7.15;;;;;;;-0.38;72.60;96816.22;4993123;28;20572;-70
2024/01/15 06:18:13;;;;;;;8.20;6.80;;;;;;;-0.36;72.32;96819.53;4986963;28;20213;-71
2024/01/15 06:20:40;;;;;;;10.77;7.22;;;;;;;-0.25;72.04;96824.50;4988540;28;20214;-71
2024/01/15 06:23:08;;;;;;;10.00;7.78;;;;;;;-0.32;71.92;96820.84;4989486;28;20194;-71
2024/01/15 06:25:34;;;;;;;12.82;7.20;;;;;;;-0.32;71.78;96815.53;4991338;28;20229;-71
2024/01/15 06:28:01;;;;;;;11.05;6.32;;;;;;;-0.33;71.86;96810.41;4990312;28;20195;-72
2024/01/15 06:30:29;;;;;;;10.38;6.45;;;;;;;-0.40;71.94;96818.19;4991870;28;20213;-74
2024/01/15 06:32:56;;;;;;;9.82;7.13;;;;;;;-0.29;71.70;96809.06;4991419;28;20199;-74
2024/01/15 06:35:23;;;;;;;8.02;6.13;;;;;;;-0.31;71.24;96811.88;4986738;28;20191;-76
2024/01/15 06:37:50;;;;;;;10.05;7.18;;;;;;;-0.18;70.91;96812.22;4988191;28;20266;-76
2024/01/15 06:40:18;;;;;;;10.55;6.32;;;;;;;-0.18;71.11;96806.91;4971377;28;20202;-75
2024/01/15 06:42:44;;;;;;;8.25;6.00;;;;;;;-0.35;71.23;96816.72;4990063;28;20727;-75
2024/01/15 06:45:11;;;;;;;7.07;5.93;;;;;;;-0.19;71.16;96810.56;4981784;28;20697;-75
2024/01/15 06:47:38;;;;;;;7.00;5.95;;;;;;;-0.17;70.47;96811.22;5003760;28;20207;-77
2024/01/15 06:50:06;;;;;;;8.10;6.45;;;;;;;-0.10;70.53;96820.22;4990035;28;20266;-75
2024/01/15 06:52:33;;;;;;;10.38;6.88;;;;;;;-0.01;70.59;96813.91;4990524;28;20973;-74
2024/01/15 06:54:59;;;;;;;9.75;6.35;;;;;;;-0.09;70.69;96816.56;4989261;28;20199;-73
2024/01/15 06:57:28;;;;;;;10.68;6.68;;;;;;;0.03;70.08;96817.03;4983813;28;20707;-72
2024/01/15 06:59:55;;;;;;;9.32;6.70;;;;;;;-0.07;70.54;96814.56;4985501;28;20199;-74
2024/01/15 07:02:21;;;;;;;10.70;7.15;;;;;;;-0.08;70.77;96823.53;4973416;28;20203;-73
2024/01/15 07:04:48;;;;;;;6.85;5.13;;;;;;;-0.21;71.36;96817.88;4985594;28;20219;-73
2024/01/15 07:07:14;;;;;;;8.82;6.55;;;;;;;-0.25;71.51;96811.22;4984414;28;20195;-72
2024/01/15 07:09:42;;;;;;;9.48;6.35;;;;;;;-0.20;71.27;96824.03;4986627;28;20558;-72
2024/01/15 07:12:10;;;;;;;7.75;6.50;;;;;;;-0.23;71.26;96814.53;4955534;28;20234;-71
2024/01/15 07:14:38;;;;;;;9.38;6.75;;;;;;;-0.19;71.16;96818.53;4976272;28;21133;-73
2024/01/15 07:17:05;;;;;;;10.30;7.18;;;;;;;-0.21;71.31;96820.53;4990053;28;20621;-72
2024/01/15 07:19:32;;;;;;;8.23;6.22;;;;;;;-0.16;71.27;96820.88;4981471;28;20209;-74
2024/01/15 07:21:59;;;;;;;11.02;7.20;;;;;;;-0.26;71.64;96824.69;4961481;28;20696;-74
2024/01/15 07:24:25;;;;;;;9.70;6.90;;;;;;;-0.25;71.51;96821.84;4963253;28;20199;-75
2024/01/15 07:26:52;;;;;;;11.48;7.20;;;;;;;-0.32;71.44;96818.19;4982863;28;20223;-75
2024/01/15 07:29:18;;;;;;;10.40;6.85;;;;;;;-0.31;71.85;96827.00;4985763;28;20203;-76
2024/01/15 07:31:50;;;;;;;10.95;7.10;;;;;;;-0.37;71.76;96823.19;4988766;28;20687;-72
2024/01/15 07:34:17;;;;;;;10.48;7.35;;;;;;;-0.34;71.60;96825.53;4987933;28;20203;-72
2024/01/15 07:36:44;;;;;;;9.07;6.82;;;;;;;-0.31;71.60;96830.47;4988831;28;20223;-73
2024/01/15 07:39:11;;;;;;;10.80;6.53;;;;;;;-0.33;71.79;96824.53;5016812;28;20207;-73
2024/01/15 07:41:38;;;;;;;8.93;6.75;;;;;;;-0.35;71.51;96826.53;4983351;28;20195;-72
2024/01/15 07:44:06;;;;;;;8.98;6.93;;;;;;;-0.29;71.49;96825.84;4974847;28;20203;-72
2024/01/15 07:46:33;;;;;;;10.70;6.25;;;;;;;-0.25;71.28;96824.50;4979636;28;20225;-71
2024/01/15 07:49:03;;;;;;;10.80;7.43;;;;;;;-0.24;71.28;96818.19;4974722;28;20196;-71
2024/01/15 07:51:29;;;;;;;8.82;5.93;;;;;;;-0.25;70.93;96824.50;4979363;28;20965;-74
2024/01/15 07:53:58;;;;;;;9.25;6.35;;;;;;;-0.22;70.59;96826.84;4975415;28;20294;-72
2024/01/15 07:56:28;;;;;;;7.90;6.45;;;;;;;-0.07;70.33;96830.53;4981937;28;20192;-72
2024/01/15 07:58:54;;;;;;;9.35;6.50;;;;;;;-0.23;70.75;96814.53;4987895;28;20907;-72
2024/01/15 08:01:21;;;;;;;8.43;6.25;;;;;;;-0.03;70.20;96831.84;4986244;28;20203;-72
2024/01/15 08:03:47;;;;;;;8.68;6.60;;;;;;;0.02;69.72;96833.16;4985812;28;20207;-72
2024/01/15 08:06:16;;;;;;;8.45;6.10;;;;;;;0.03;69.65;96825.03;4987778;28;20728;-72
2024/01/15 08:08:42;;;;;;;10.48;7.30;;;;;;;-0.07;69.95;96832.34;4983121;28;20298;-73
2024/01/15 08:11:09;;;;;;;8.15;5.90;;;;;;;0.06;69.61;96827.34;4984263;28;20211;-71
2024/01/15 08:13:35;;;;;;;8.55;6.70;;;;;;;0.14;69.14;96826.53;4998208;28;20203;-72
2024/01/15 08:16:02;;;;;;;9.57;6.15;;;;;;;-0.05;69.75;96825.88;4977337;28;20198;-71
2024/01/15 08:18:28;;;;;;;7.50;5.70;;;;;;;-0.01;69.88;96823.72;4984551;28;20321;-72
2024/01/15 08:20:55;;;;;;;7.60;5.63;;;;;;;0.04;69.13;96828.50;4981549;28;20211;-72
2024/01/15 08:23:24;;;;;;;8.82;6.13;;;;;;;0.00;69.44;96828.84;4986924;28;20727;-73
2024/01/15 08:25:52;;;;;;;8.27;5.90;;;;;;;-0.03;69.39;96837.19;4982632;28;20756;-73
2024/01/15 08:28:18;;;;;;;8.82;5.90;;;;;;;0.15;68.74;96830.84;4978495;28;20207;-73
2024/01/15 08:30:45;;;;;;;8.25;7.05;;;;;;;0.16;68.43;96821.88;4982318;28;20630;-72
2024/01/15 08:33:13;;;;;;;7.35;5.60;;;;;;;0.08;68.58;96829.84;4982687;28;20199;-73
2024/01/15 08:35:39;;;;;;;8.02;5.97;;;;;;;0.04;68.66;96832.00;4982850;28;20195;-73
2024/01/15 08:38:06;;;;;;;7.60;5.38;;;;;;;0.13;68.51;96836.31;4984081;28;20265;-73
2024/01/15 08:40:34;;;;;;;7.18;6.10;;;;;;;0.03;68.38;96825.03;4985633;28;20250;-73
2024/01/15 08:43:01;;;;;;;7.28;5.28;;;;;;;0.18;68.12;96819.88;4984745;28;20286;-73
2024/01/15 08:45:28;;;;;;;7.57;5.22;;;;;;;0.08;67.91;96827.19;4984537;28;20231;-73
2024/01/15 08:47:55;;;;;;;8.15;6.25;;;;;;;0.10;68.21;96831.34;4986901;28;20214;-73
2024/01/15 08:50:21;;;;;;;9.15;5.45;;;;;;;0.18;67.72;96819.88;4996519;28;20217;-73
2024/01/15 08:52:48;;;;;;;6.13;5.28;;;;;;;0.20;67.90;96824.03;4983348;28;20203;-73
2024/01/15 08:55:15;;;;;;;6.88;4.78;;;;;;;0.21;67.62;96817.72;4983137;28;20250;-73
2024/01/15 08:57:44;;;;;;;6.72;5.55;;;;;;;0.37;67.58;96816.84;4978390;28;20203;-73
2024/01/15 09:00:12;;;;;;;6.72;5.25;;;;;;;0.33;67.18;96812.84;4990836;28;20207;-73
2024/01/15 09:02:39;;;;;;;7.28;5.35;;;;;;;0.40;67.13;96816.50;4986872;28;20257;-73
2024/01/15 09:05:06;;;;;;;9.05;5.47;;;;;;;0.34;67.73;96820.66;4982387;28;20667;-73
2024/01/15 09:07:32;;;;;;;8.25;5.45;;;;;;;0.40;67.53;96808.53;4983136;28;20533;-73
2024/01/15 09:09:59;;;;;;;5.60;4.78;;;;;;;0.41;66.88;96818.16;4986964;28;20206;-74
2024/01/15 09:12:26;;;;;;;7.90;5.25;;;;;;;0.38;67.32;96818.50;4973575;28;20653;-73
2024/01/15 09:14:54;;;;;;;7.50;5.72;;;;;;;0.48;66.62;96816.50;5006568;28;20557;-73
2024/01/15 09:17:21;;;;;;;8.38;5.35;;;;;;;0.60;66.18;96812.50;4998272;28;20222;-74
2024/01/15 09:19:48;;;;;;;7.38;5.00;;;;;;;0.54;66.13;96807.00;4988923;28;20203;-74
2024/01/15 09:22:18;;;;;;;7.10;4.88;;;;;;;0.65;65.49;96791.47;4988082;28;21077;-74
2024/01/15 09:24:44;;;;;;;6.00;4.35;;;;;;;0.60;65.25;96790.38;4990025;28;20195;-74
2024/01/15 09:27:11;;;;;;;7.18;5.15;;;;;;;0.71;65.24;96786.47;5006327;28;20235;-74
2024/01/15 09:29:39;;;;;;;5.25;4.75;;;;;;;0.87;64.73;96792.59;4991124;28;20561;-74
2024/01/15 09:32:08;;;;;;;5.95;4.63;;;;;;;0.70;65.32;96793.63;4985580;28;20211;-74
2024/01/15 09:34:34;;;;;;;6.60;4.00;;;;;;;0.71;65.54;96802.44;5004657;28;20672;-74
2024/01/15 09:37:02;;;;;;;6.40;4.80;;;;;;;0.60;66.19;96806.34;4985550;28;20203;-73
2024/01/15 09:39:30;;;;;;;6.45;4.97;;;;;;;0.73;66.49;96808.44;4985378;28;22304;-73
2024/01/15 09:41:57;;;;;;;6.38;4.78;;;;;;;0.82;65.62;96810.91;4984335;28;20207;-73
2024/01/15 09:44:26;;;;;;;6.35;4.63;;;;;;;0.93;65.32;96812.38;4987481;28;20677;-75
2024/01/15 09:46:52;;;;;;;7.20;4.45;;;;;;;0.88;65.20;96804.06;5005833;28;20223;-73
2024/01/15 09:49:21;;;;;;;5.38;4.22;;;;;;;1.06;65.16;96804.66;4987786;28;20210;-76
2024/01/15 09:51:48;;;;;;;7.57;4.50;;;;;;;0.82;65.29;96796.78;4989086;28;20660;-73
2024/01/15 09:54:16;;;;;;;11.07;3.95;;;;;;;0.68;65.51;96793.81;4985544;28;20565;-74
2024/01/15 09:56:43;;;;;;;6.45;4.50;;;;;;;0.98;65.21;96788.69;4987031;28;20306;-73
2024/01/15 09:59:10;;;;;;;7.38;4.45;;;;;;;1.05;65.44;96792.34;4989422;28;20286;-74
2024/01/15 10:01:37;;;;;;;6.60;4.30;;;;;;;0.96;65.29;96785.41;4967716;28;20218;-74
2024/01/15 10:04:05;;;;;;;4.70;3.72;;;;;;;1.10;64.88;96775.84;4986990;28;20199;-74
2024/01/15 10:06:33;;;;;;;5.05;3.85;;;;;;;1.10;64.65;96775.84;4984164;28;20234;-73
2024/01/15 10:09:00;;;;;;;6.07;3.83;;;;;;;1.10;64.85;96776.66;4990329;28;20218;-74
2024/01/15 10:11:26;;;;;;;5.05;4.00;;;;;;;1.22;64.75;96769.94;4990317;28;20255;-75
2024/01/15 10:13:53;;;;;;;6.70;4.05;;;;;;;0.98;64.88;96778.03;5017845;28;20199;-74
2024/01/15 10:16:19;;;;;;;5.25;3.72;;;;;;;0.94;64.77;96763.44;4987482;28;20301;-74
2024/01/15 10:18:46;;;;;;;4.95;3.70;;;;;;;0.98;64.82;96751.41;4984248;28;20199;-75
2024/01/15 10:21:13;;;;;;;6.10;4.68;;;;;;;1.01;65.07;96762.53;4969757;28;20210;-74
2024/01/15 10:23:42;;;;;;;5.20;4.30;;;;;;;1.03;64.60;96759.72;4979700;28;20207;-75
2024/01/15 10:26:11;;;;;;;5.50;4.20;;;;;;;0.94;65.18;96756.28;4982784;28;20229;-73
2024/01/15 10:28:38;;;;;;;7.05;4.10;;;;;;;0.86;65.94;96758.16;4982171;28;20219;-73
2024/01/15 10:31:07;;;;;;;6.53;4.07;;;;;;;0.78;65.62;96750.19;4984856;28;20200;-73
2024/01/15 10:33:33;;;;;;;5.00;4.05;;;;;;;0.86;65.17;96747.50;4985085;28;20285;-74
2024/01/15 10:36:01;;;;;;;4.93;4.05;;;;;;;0.89;64.85;96741.81;4987339;28;20329;-72
2024/01/15 10:38:27;;;;;;;5.38;4.88;;;;;;;0.79;65.12;96730.53;4982223;28;20199;-75
2024/01/15 10:40:56;;;;;;;5.55;4.15;;;;;;;0.90;65.12;96746.16;4968748;28;20222;-72
2024/01/15 10:43:24;;;;;;;6.47;4.40;;;;;;;0.87;65.35;96738.50;4966668;28;20306;-73
2024/01/15 10:45:51;;;;;;;4.93;4.18;;;;;;;0.94;65.86;96734.16;4987935;28;20199;-74
2024/01/15 10:48:20;;;;;;;5.00;4.10;;;;;;;0.99;65.51;96726.44;4983948;28;20207;-75
2024/01/15 10:50:47;;;;;;;4.57;4.15;;;;;;;0.92;65.89;96725.50;4984616;28;20771;-73
2024/01/15 10:53:17;;;;;;;5.93;4.15;;;;;;;0.90;65.98;96723.00;4986585;28;20206;-73
2024/01/15 10:55:44;;;;;;;8.77;4.65;;;;;;;0.87;67.22;96727.84;4990448;28;20275;-73
2024/01/15 10:58:12;;;;;;;5.72;4.30;;;;;;;1.06;67.02;96726.56;4984632;28;20596;-72
2024/01/15 11:00:39;;;;;;;5.20;4.15;;;;;;;0.89;68.30;96729.34;4989979;28;20203;-73
2024/01/15 11:03:06;;;;;;;5.78;4.20;;;;;;;0.74;69.59;96732.91;4985590;28;20212;-74
2024/01/15 11:05:34;;;;;;;6.95;4.35;;;;;;;0.66;71.34;96721.28;4988203;28;20210;-72
2024/01/15 11:08:02;;;;;;;6.38;4.90;;;;;;;0.58;72.90;96729.31;4980538;28;20223;-73
2024/01/15 11:10:42;;;;;;;5.22;4.70;;;;;;;0.62;74.47;96722.66;4981977;28;20199;-73
2024/01/15 11:13:11;;;;;;;6.55;5.22;;;;;;;0.45;75.46;96717.53;4985457;28;20203;-73
2024/01/15 11:16:01;;;;;;;5.63;4.53;;;;;;;0.49;75.80;96717.03;5018957;28;20206;-74
2024/01/15 11:18:28;;;;;;;6.85;5.28;;;;;;;0.30;76.26;96728.91;5002960;28;20207;-74
2024/01/15 11:21:26;;;;;;;5.80;4.32;;;;;;;0.36;76.91;96738.00;4988152;28;20207;-74
2024/01/15 11:23:56;;;;;;;7.07;5.05;;;;;;;0.18;79.56;96711.66;4980517;28;20199;-74
2024/01/15 11:26:31;;;;;;;5.38;4.85;;;;;;;0.09;81.97;96722.47;4979738;28;20234;-74
2024/01/15 11:29:00;;;;;;;7.07;5.45;;;;;;;0.04;82.15;96708.84;4988064;28;20211;-73